createdAt,value
2023-01-03T00:00:00.941Z,86.65
2023-01-03T00:10:09.907Z,86.23
2023-01-03T00:20:15.933Z,86.24
2023-01-03T00:30:21.616Z,85.89
2023-01-03T00:40:27.375Z,85.54
2023-01-03T00:50:33.001Z,85.18
2023-01-03T01:00:38.886Z,84.85
2023-01-03T01:11:01.858Z,84.57
2023-01-03T01:21:10.231Z,84.33
2023-01-03T01:31:17.881Z,84.09
2023-01-03T01:41:37.949Z,84.65
2023-01-03T01:51:44.219Z,85.84
2023-01-03T02:01:52.669Z,86.93
2023-01-03T02:12:17.034Z,87.44
2023-01-03T02:22:52.253Z,87.82
2023-01-03T02:33:06.584Z,88.96
2023-01-03T02:43:17.972Z,89.57
2023-01-03T02:53:29.138Z,90.50
2023-01-03T03:03:40.362Z,91.25
2023-01-03T03:13:52.195Z,91.89
2023-01-03T03:24:35.793Z,92.25
2023-01-03T03:34:43.770Z,93.43
2023-01-03T03:45:04.153Z,94.18
2023-01-03T03:55:16.377Z,94.46
2023-01-03T04:05:25.296Z,94.99
2023-01-03T04:15:31.217Z,95.66
2023-01-03T04:25:37.005Z,95.87
2023-01-03T04:35:42.762Z,95.61
2023-01-03T04:45:50.821Z,95.42
2023-01-03T04:55:57.819Z,95.59
2023-01-03T05:06:06.147Z,95.82
2023-01-03T05:16:14.556Z,95.97
2023-01-03T05:26:22.859Z,96.15
2023-01-03T05:36:28.655Z,96.34
2023-01-03T05:46:34.782Z,96.74
2023-01-03T05:56:40.601Z,96.83
2023-01-03T06:06:46.428Z,96.71
2023-01-03T06:17:15.106Z,96.56
2023-01-03T06:27:21.076Z,96.52
2023-01-03T06:37:26.799Z,96.67
2023-01-03T06:47:50.275Z,96.70
2023-01-03T06:57:55.935Z,96.43
2023-01-03T07:08:01.769Z,96.29
2023-01-03T07:18:07.909Z,96.04
2023-01-03T07:28:15.248Z,95.60
2023-01-03T07:38:21.198Z,95.30
2023-01-03T07:48:27.072Z,94.93
2023-01-03T07:58:33.477Z,94.57
2023-01-03T08:08:39.519Z,93.85
2023-01-03T08:18:46.070Z,93.46
2023-01-03T08:28:52.701Z,93.32
2023-01-03T08:39:03.558Z,93.20
2023-01-03T08:49:10.023Z,92.03
2023-01-03T08:59:15.911Z,91.03
2023-01-03T09:09:21.852Z,89.32
2023-01-03T09:19:27.594Z,88.57
2023-01-03T09:29:33.454Z,88.17
2023-01-03T09:39:40.754Z,87.69
2023-01-03T09:50:18.334Z,87.74
2023-01-03T10:00:42.656Z,86.24
2023-01-03T10:11:02.061Z,84.50
2023-01-03T10:21:14.774Z,84.12
2023-01-03T10:31:44.357Z,83.42
2023-01-03T10:41:52.765Z,82.67
2023-01-03T10:52:02.742Z,81.36
2023-01-03T11:02:23.469Z,81.02
2023-01-03T11:12:36.740Z,80.55
2023-01-03T11:22:47.537Z,80.98
2023-01-03T11:33:08.944Z,81.58
2023-01-03T11:43:31.166Z,81.32
2023-01-03T11:53:40.533Z,80.66
2023-01-03T12:04:02.783Z,80.81
2023-01-03T12:14:16.369Z,80.48
2023-01-03T12:24:33.064Z,79.35
2023-01-03T12:34:46.350Z,78.86
2023-01-03T12:45:01.277Z,78.43
2023-01-03T12:55:19.968Z,78.14
2023-01-03T13:05:30.818Z,77.97
2023-01-03T13:15:37.847Z,77.27
2023-01-03T13:25:44.806Z,77.44
2023-01-03T13:36:02.440Z,78.27
2023-01-03T13:46:22.445Z,78.93
2023-01-03T13:56:31.667Z,79.39
2023-01-03T14:06:58.348Z,79.90
2023-01-03T14:17:05.830Z,79.84
2023-01-03T14:27:17.265Z,80.63
2023-01-03T14:37:26.550Z,81.25
2023-01-03T14:47:38.722Z,81.43
2023-01-03T14:57:45.774Z,81.41
2023-01-03T15:07:51.548Z,81.73
2023-01-03T15:18:00.877Z,81.95
2023-01-03T15:28:25.161Z,81.62
2023-01-03T15:38:35.597Z,82.12
2023-01-03T15:48:43.269Z,82.64
2023-01-03T15:58:50.969Z,82.95
2023-01-03T16:08:56.960Z,83.39
2023-01-03T16:19:04.245Z,83.98
2023-01-03T16:29:10.180Z,84.22
2023-01-03T16:39:18.382Z,84.67
2023-01-03T16:49:24.413Z,84.93
2023-01-03T16:59:30.078Z,85.37
2023-01-03T17:09:38.137Z,85.77
2023-01-03T17:20:03.398Z,86.25
2023-01-03T17:30:14.523Z,86.78
2023-01-03T17:40:29.250Z,87.23
2023-01-03T17:50:39.020Z,87.61
2023-01-03T18:00:44.995Z,87.96
2023-01-03T18:10:53.449Z,88.70
2023-01-03T18:21:00.308Z,89.16
2023-01-03T18:31:07.360Z,89.47
2023-01-03T18:41:18.981Z,89.82
2023-01-03T18:51:28.979Z,90.28
2023-01-03T19:01:36.113Z,90.71
2023-01-03T19:11:42.645Z,91.13
2023-01-03T19:21:49.195Z,90.92
2023-01-03T19:31:55.403Z,91.20
2023-01-03T19:42:20.026Z,91.78
2023-01-03T19:52:25.953Z,92.22
2023-01-03T20:02:40.952Z,92.15
2023-01-03T20:12:48.029Z,92.67
2023-01-03T20:23:05.844Z,93.00
2023-01-03T20:33:12.524Z,93.38
2023-01-03T20:43:19.714Z,93.64
2023-01-03T20:53:26.995Z,93.42
2023-01-03T21:03:32.939Z,93.67
2023-01-03T21:13:39.088Z,93.65
2023-01-03T21:23:44.933Z,93.68
2023-01-03T21:33:51.085Z,93.91
2023-01-03T21:43:58.733Z,94.20
2023-01-03T21:54:04.923Z,94.54
2023-01-03T22:04:17.823Z,95.39
2023-01-03T22:14:23.698Z,95.09
2023-01-03T22:24:29.812Z,95.19
2023-01-03T22:34:35.820Z,95.02
2023-01-03T22:44:41.943Z,94.83
2023-01-03T22:54:47.824Z,94.54
2023-01-03T23:04:53.542Z,94.53
2023-01-03T23:14:59.736Z,94.57
2023-01-03T23:25:06.065Z,94.41
2023-01-03T23:35:12.491Z,94.41
2023-01-03T23:45:18.596Z,94.62
2023-01-03T23:55:24.443Z,94.65
